createdAt,value
2018-07-27T00:00:56.345Z,22.48
2018-07-27T00:03:25.252Z,22.48
2018-07-27T00:05:53.071Z,22.49
2018-07-27T00:08:21.974Z,22.64
2018-07-27T00:10:49.713Z,22.83
2018-07-27T00:13:18.497Z,22.96
2018-07-27T00:15:46.364Z,23.13
2018-07-27T00:18:14.692Z,23.28
2018-07-27T00:20:43.024Z,23.33
2018-07-27T00:23:11.930Z,23.15
2018-07-27T00:25:39.688Z,22.90
2018-07-27T00:28:08.584Z,22.72
2018-07-27T00:30:36.339Z,22.62
2018-07-27T00:33:05.794Z,22.60
2018-07-27T00:35:34.221Z,22.54
2018-07-27T00:38:02.542Z,22.51
2018-07-27T00:40:32.634Z,22.50
2018-07-27T00:43:00.992Z,22.47
2018-07-27T00:45:29.311Z,22.44
2018-07-27T00:47:57.056Z,22.52
2018-07-27T00:50:25.790Z,22.70
2018-07-27T00:52:53.703Z,22.88
2018-07-27T00:55:22.033Z,23.02
2018-07-27T00:57:50.940Z,23.11
2018-07-27T01:00:19.262Z,23.05
2018-07-27T01:02:47.025Z,22.81
2018-07-27T01:05:15.343Z,22.66
2018-07-27T01:07:44.242Z,22.56
2018-07-27T01:10:11.977Z,22.64
2018-07-27T01:12:41.757Z,22.75
2018-07-27T01:15:10.109Z,22.71
2018-07-27T01:17:37.951Z,22.48
2018-07-27T01:20:06.782Z,22.30
2018-07-27T01:22:34.525Z,22.18
2018-07-27T01:25:11.030Z,22.17
2018-07-27T01:27:38.979Z,22.28
2018-07-27T01:30:07.678Z,22.36
2018-07-27T01:32:36.001Z,22.44
2018-07-27T01:35:03.977Z,22.27
2018-07-27T01:37:33.958Z,22.14
2018-07-27T01:40:02.283Z,22.01
2018-07-27T01:42:31.214Z,21.90
2018-07-27T01:44:59.595Z,21.89
2018-07-27T01:47:27.785Z,22.04
2018-07-27T01:49:56.682Z,22.15
2018-07-27T01:52:24.983Z,22.27
2018-07-27T01:54:53.327Z,22.28
2018-07-27T01:57:21.069Z,22.28
2018-07-27T01:59:50.025Z,22.33
2018-07-27T02:02:18.030Z,22.37
2018-07-27T02:04:46.962Z,22.44
2018-07-27T02:07:15.866Z,22.49
2018-07-27T02:09:44.200Z,22.52
2018-07-27T02:12:12.535Z,22.58
2018-07-27T02:14:40.273Z,22.58
2018-07-27T02:17:09.211Z,22.58
2018-07-27T02:19:37.306Z,22.56
2018-07-27T02:22:05.264Z,22.57
2018-07-27T02:24:33.590Z,22.55
2018-07-27T02:27:02.479Z,22.55
2018-07-27T02:29:30.787Z,22.54
2018-07-27T02:31:59.115Z,22.49
2018-07-27T02:34:27.439Z,22.37
2018-07-27T02:36:55.181Z,22.35
2018-07-27T02:39:24.091Z,22.34
2018-07-27T02:41:51.907Z,22.40
2018-07-27T02:44:20.806Z,22.47
2018-07-27T02:46:49.438Z,22.50
2018-07-27T02:49:17.758Z,22.56
2018-07-27T02:51:46.659Z,22.58
2018-07-27T02:54:14.406Z,22.56
2018-07-27T02:56:42.729Z,22.56
2018-07-27T02:59:11.047Z,22.54
2018-07-27T03:01:39.376Z,22.43
2018-07-27T03:04:08.270Z,22.26
2018-07-27T03:06:36.593Z,22.28
2018-07-27T03:09:04.912Z,22.32
2018-07-27T03:11:33.241Z,22.32
2018-07-27T03:14:01.008Z,22.28
2018-07-27T03:16:29.900Z,22.00
2018-07-27T03:18:57.650Z,21.77
2018-07-27T03:21:26.137Z,21.61
2018-07-27T03:23:54.293Z,21.61
2018-07-27T03:26:22.620Z,21.74
2018-07-27T03:28:51.955Z,21.87
2018-07-27T03:31:20.272Z,22.00
2018-07-27T03:33:48.608Z,22.13
2018-07-27T03:36:16.932Z,22.20
2018-07-27T03:38:45.263Z,22.20
2018-07-27T03:41:13.591Z,22.26
2018-07-27T03:43:41.742Z,22.38
2018-07-27T03:46:10.238Z,22.37
2018-07-27T03:48:38.593Z,22.34
2018-07-27T03:51:06.910Z,22.28
2018-07-27T03:53:35.226Z,22.30
2018-07-27T03:56:03.555Z,22.36
2018-07-27T03:58:31.294Z,22.41
2018-07-27T04:00:59.609Z,22.43
2018-07-27T04:03:27.930Z,22.52
2018-07-27T04:05:56.269Z,22.57
2018-07-27T04:08:25.172Z,22.51
2018-07-27T04:10:53.503Z,22.57
2018-07-27T04:13:21.833Z,22.46
2018-07-27T04:15:50.169Z,22.31
2018-07-27T04:18:17.905Z,22.30
2018-07-27T04:20:46.824Z,22.32
2018-07-27T04:23:14.568Z,22.43
2018-07-27T04:25:42.919Z,22.58
2018-07-27T04:28:11.835Z,22.71
2018-07-27T04:30:39.576Z,22.84
2018-07-27T04:33:08.479Z,22.94
2018-07-27T04:35:36.869Z,23.06
2018-07-27T04:38:05.131Z,23.16
2018-07-27T04:40:33.465Z,23.34
2018-07-27T04:43:01.231Z,23.45
2018-07-27T04:45:29.550Z,23.51
2018-07-27T04:47:58.466Z,23.59
2018-07-27T04:53:25.383Z,23.77
2018-07-27T04:55:54.774Z,23.73
2018-07-27T04:58:22.498Z,23.72
2018-07-27T05:00:51.431Z,23.87
2018-07-27T05:03:18.596Z,23.97
2018-07-27T05:05:46.937Z,24.06
2018-07-27T05:08:15.853Z,24.15
2018-07-27T05:10:43.867Z,24.22
2018-07-27T05:13:11.937Z,24.09
2018-07-27T05:15:40.266Z,24.01
2018-07-27T05:18:08.754Z,24.03
2018-07-27T05:20:36.920Z,24.12
2018-07-27T05:23:05.831Z,24.23
2018-07-27T05:25:34.159Z,24.35
2018-07-27T05:28:01.900Z,24.54
2018-07-27T05:30:30.234Z,24.69
2018-07-27T05:32:59.135Z,24.84
2018-07-27T05:35:27.456Z,25.01
2018-07-27T05:37:55.200Z,25.28
2018-07-27T05:40:24.784Z,25.56
2018-07-27T05:42:53.113Z,25.64
2018-07-27T05:45:21.020Z,25.61
2018-07-27T05:47:49.923Z,25.65
2018-07-27T05:50:18.254Z,25.74
2018-07-27T05:52:46.738Z,25.81
2018-07-27T05:55:15.080Z,25.83
2018-07-27T05:57:43.408Z,25.85
2018-07-27T06:00:11.984Z,25.94
2018-07-27T06:02:40.317Z,25.98
2018-07-27T06:05:08.387Z,26.02
2018-07-27T06:07:36.947Z,26.05
2018-07-27T06:10:05.272Z,26.13
2018-07-27T06:12:33.597Z,26.17
2018-07-27T06:15:01.341Z,26.25
2018-07-27T06:17:30.249Z,26.31
2018-07-27T06:19:58.829Z,26.33
2018-07-27T06:22:27.069Z,26.34
2018-07-27T06:24:55.392Z,26.34
2018-07-27T06:27:24.295Z,26.32
2018-07-27T06:29:52.945Z,26.37
2018-07-27T06:32:20.675Z,26.47
2018-07-27T06:34:49.584Z,26.49
2018-07-27T06:37:17.337Z,26.52
2018-07-27T06:39:46.239Z,26.60
2018-07-27T06:42:14.323Z,26.64
2018-07-27T06:44:42.909Z,26.67
2018-07-27T06:47:10.659Z,26.69
2018-07-27T06:49:39.190Z,26.68
2018-07-27T06:52:07.886Z,26.72
2018-07-27T06:54:36.210Z,26.74
2018-07-27T06:57:05.941Z,26.75
2018-07-27T06:59:34.235Z,26.78
2018-07-27T07:02:02.553Z,26.78
2018-07-27T07:04:30.874Z,26.82
2018-07-27T07:06:58.614Z,26.86
2018-07-27T07:09:27.061Z,26.87
2018-07-27T07:11:55.254Z,26.89
2018-07-27T07:14:24.204Z,26.96
2018-07-27T07:16:52.110Z,26.99
2018-07-27T07:19:20.793Z,27.02
2018-07-27T07:21:49.114Z,27.04
2018-07-27T07:24:17.454Z,27.01
2018-07-27T07:26:45.775Z,27.03
2018-07-27T07:29:14.097Z,27.08
2018-07-27T07:31:43.393Z,27.13
2018-07-27T07:34:10.396Z,27.17
2018-07-27T07:36:39.325Z,27.19
2018-07-27T07:39:07.141Z,27.22
2018-07-27T07:41:35.405Z,27.25
2018-07-27T07:44:04.310Z,27.30
2018-07-27T07:46:32.073Z,27.32
2018-07-27T07:49:00.385Z,27.35
2018-07-27T07:51:28.717Z,27.36
2018-07-27T07:53:57.496Z,27.35
2018-07-27T07:56:25.943Z,27.37
2018-07-27T07:58:53.882Z,27.34
2018-07-27T08:01:22.052Z,27.36
2018-07-27T08:03:50.359Z,27.35
2018-07-27T08:06:18.705Z,27.35
2018-07-27T08:08:47.535Z,27.36
2018-07-27T08:11:16.502Z,27.37
2018-07-27T08:13:44.782Z,27.35
2018-07-27T08:16:13.107Z,27.37
2018-07-27T08:18:40.848Z,27.41
2018-07-27T08:21:09.770Z,27.43
2018-07-27T08:23:38.077Z,27.42
2018-07-27T08:26:05.829Z,27.40
2018-07-27T08:28:41.483Z,27.42
2018-07-27T08:31:09.833Z,27.45
2018-07-27T08:33:37.780Z,27.44
2018-07-27T08:36:06.521Z,27.45
2018-07-27T08:38:34.260Z,27.45
2018-07-27T08:41:02.617Z,27.42
2018-07-27T08:43:30.920Z,27.48
2018-07-27T08:45:59.292Z,27.55
2018-07-27T08:48:28.145Z,27.62
2018-07-27T08:50:56.467Z,27.63
2018-07-27T08:53:24.235Z,27.63
2018-07-27T08:55:53.148Z,27.65
2018-07-27T08:58:21.473Z,27.67
2018-07-27T09:00:51.835Z,27.73
2018-07-27T09:03:20.161Z,27.76
2018-07-27T09:05:48.495Z,27.78
2018-07-27T09:08:16.841Z,27.83
2018-07-27T09:10:44.845Z,27.92
2018-07-27T09:13:14.505Z,27.98
2018-07-27T09:15:43.008Z,28.01
2018-07-27T09:18:11.913Z,28.03
2018-07-27T09:20:40.225Z,28.02
2018-07-27T09:23:07.981Z,28.05
2018-07-27T09:25:36.856Z,28.05
2018-07-27T09:28:05.201Z,28.03
2018-07-27T09:30:34.256Z,28.00
2018-07-27T09:33:01.809Z,28.00
2018-07-27T09:35:29.596Z,27.99
2018-07-27T09:37:58.001Z,27.99
2018-07-27T09:40:26.875Z,28.05
2018-07-27T09:42:55.129Z,28.07
2018-07-27T09:45:23.949Z,28.07
2018-07-27T09:47:52.696Z,28.03
2018-07-27T09:50:20.450Z,28.09
2018-07-27T09:52:49.366Z,28.13
2018-07-27T09:55:17.685Z,28.13
2018-07-27T09:57:45.435Z,28.05
2018-07-27T10:00:13.762Z,28.06
2018-07-27T10:02:43.600Z,28.08
2018-07-27T10:05:10.722Z,28.10
2018-07-27T10:07:39.633Z,28.15
2018-07-27T10:10:07.380Z,28.19
2018-07-27T10:12:36.282Z,28.25
2018-07-27T10:15:04.606Z,28.29
2018-07-27T10:17:32.919Z,28.31
2018-07-27T10:20:01.233Z,28.33
2018-07-27T10:22:30.003Z,28.40
2018-07-27T10:24:58.900Z,28.44
2018-07-27T10:27:27.219Z,28.50
2018-07-27T10:29:55.017Z,28.53
2018-07-27T10:32:23.860Z,28.55
2018-07-27T10:34:52.565Z,28.59
2018-07-27T10:37:20.889Z,28.61
2018-07-27T10:39:49.565Z,28.71
2018-07-27T10:42:17.264Z,28.79
2018-07-27T10:44:46.190Z,28.84
2018-07-27T10:47:14.535Z,28.83
2018-07-27T10:49:42.850Z,28.77
2018-07-27T10:52:11.169Z,28.75
2018-07-27T10:54:39.807Z,28.76
2018-07-27T10:57:08.000Z,28.88
2018-07-27T10:59:36.482Z,28.93
2018-07-27T11:02:04.821Z,28.92
2018-07-27T11:04:33.153Z,28.88
2018-07-27T11:07:00.890Z,28.86
2018-07-27T11:09:29.794Z,28.83
2018-07-27T11:11:58.124Z,28.78
2018-07-27T11:14:25.870Z,28.83
2018-07-27T11:16:55.390Z,28.85
2018-07-27T11:19:23.001Z,28.85
2018-07-27T11:21:50.908Z,28.88
2018-07-27T11:24:19.861Z,28.89
2018-07-27T11:26:48.189Z,28.91
2018-07-27T11:29:16.537Z,28.88
2018-07-27T11:31:44.854Z,28.94
2018-07-27T11:34:13.176Z,28.98
2018-07-27T11:36:41.494Z,29.10
2018-07-27T11:39:09.838Z,29.20
2018-07-27T11:41:37.571Z,29.32
2018-07-27T11:44:06.466Z,29.30
2018-07-27T11:46:34.822Z,29.35
2018-07-27T11:49:02.591Z,29.41
2018-07-27T11:51:32.450Z,29.39
2018-07-27T11:53:59.514Z,29.23
2018-07-27T11:56:27.837Z,29.16
2018-07-27T11:58:56.749Z,29.03
2018-07-27T12:01:25.106Z,29.02
2018-07-27T12:03:53.451Z,29.10
2018-07-27T12:06:21.236Z,29.21
2018-07-27T12:08:50.132Z,29.23
2018-07-27T12:11:18.466Z,29.22
2018-07-27T12:13:47.632Z,29.25
2018-07-27T12:16:14.767Z,29.34
2018-07-27T12:18:43.092Z,29.51
2018-07-27T12:21:12.040Z,29.57
2018-07-27T12:23:39.752Z,29.54
2018-07-27T12:26:08.089Z,29.60
2018-07-27T12:28:36.987Z,29.77
2018-07-27T12:31:05.001Z,29.92
2018-07-27T12:33:33.672Z,29.99
2018-07-27T12:36:01.994Z,30.08
2018-07-27T12:38:30.320Z,30.19
2018-07-27T12:40:58.071Z,30.27
2018-07-27T12:43:27.813Z,30.30
2018-07-27T12:45:54.805Z,30.46
2018-07-27T12:48:23.187Z,30.63
2018-07-27T12:50:52.033Z,30.61
2018-07-27T12:53:21.126Z,30.73
2018-07-27T12:55:49.469Z,30.72
2018-07-27T12:58:19.074Z,30.81
2018-07-27T13:00:46.693Z,30.64
2018-07-27T13:03:15.014Z,30.54
2018-07-27T13:05:43.372Z,30.51
2018-07-27T13:08:12.548Z,30.51
2018-07-27T13:10:40.897Z,30.43
2018-07-27T13:13:08.619Z,30.40
2018-07-27T13:15:38.231Z,30.58
2018-07-27T13:18:06.310Z,30.71
2018-07-27T13:20:35.274Z,30.83
2018-07-27T13:23:03.593Z,30.86
2018-07-27T13:25:31.997Z,30.81
2018-07-27T13:28:00.515Z,30.83
2018-07-27T13:30:31.318Z,30.90
2018-07-27T13:35:28.776Z,30.79
2018-07-27T13:37:57.413Z,30.94
2018-07-27T13:40:24.944Z,30.97
2018-07-27T13:42:54.083Z,30.91
2018-07-27T13:51:34.958Z,31.34
2018-07-27T13:54:19.537Z,31.47
2018-07-27T13:59:14.800Z,32.00
2018-07-27T14:01:43.337Z,32.09
2018-07-27T14:04:14.351Z,32.19
2018-07-27T14:08:24.344Z,32.45
2018-07-27T14:09:15.881Z,32.68
2018-07-27T14:20:04.451Z,32.66
2018-07-27T14:25:25.445Z,33.16
2018-07-27T15:57:41.453Z,35.23
2018-07-27T16:00:21.055Z,35.06
2018-07-27T16:02:49.419Z,35.03
2018-07-27T16:05:19.147Z,35.17
2018-07-27T16:07:47.474Z,35.40
2018-07-27T16:10:18.263Z,35.85
2018-07-27T16:12:47.339Z,35.85
2018-07-27T16:15:15.464Z,35.64
2018-07-27T16:17:43.270Z,35.48
2018-07-27T16:20:12.194Z,35.34
2018-07-27T16:22:40.534Z,35.48
2018-07-27T16:25:09.754Z,35.59
2018-07-27T16:27:38.021Z,35.62
2018-07-27T16:30:06.535Z,35.61
2018-07-27T16:32:35.191Z,35.36
2018-07-27T16:35:06.770Z,35.32
2018-07-27T16:37:34.907Z,35.19
2018-07-27T16:40:04.198Z,34.50
2018-07-27T16:42:32.596Z,33.89
2018-07-27T16:45:00.930Z,33.42
2018-07-27T16:53:21.231Z,31.91
2018-07-27T16:55:49.990Z,31.67
2018-07-27T16:58:18.566Z,31.39
2018-07-27T17:00:46.909Z,31.13
2018-07-27T17:03:15.448Z,30.94
2018-07-27T17:05:43.538Z,30.77
2018-07-27T17:08:11.377Z,30.58
2018-07-27T17:10:40.201Z,30.36
2018-07-27T17:13:08.701Z,30.29
2018-07-27T17:15:38.562Z,30.23
2018-07-27T17:18:05.830Z,30.11
2018-07-27T17:20:34.196Z,29.90
2018-07-27T17:23:03.477Z,29.77
2018-07-27T17:25:31.457Z,29.69
2018-07-27T17:27:59.810Z,29.65
2018-07-27T17:30:28.359Z,29.70
2018-07-27T17:32:58.982Z,29.80
2018-07-27T17:35:25.979Z,29.86
2018-07-27T17:37:55.111Z,29.74
2018-07-27T17:40:38.690Z,29.49
2018-07-27T17:43:06.447Z,29.34
2018-07-27T17:45:36.242Z,29.31
2018-07-27T17:48:07.266Z,29.30
2018-07-27T17:50:36.206Z,29.26
2018-07-27T17:53:05.432Z,29.28
2018-07-27T17:55:34.069Z,29.27
2018-07-27T17:58:03.198Z,29.26
2018-07-27T18:00:31.309Z,29.25
2018-07-27T18:02:59.696Z,29.24
2018-07-27T18:05:34.619Z,29.15
2018-07-27T18:08:00.237Z,29.06
2018-07-27T18:10:29.095Z,28.96
2018-07-27T18:12:57.401Z,28.95
2018-07-27T18:15:31.973Z,28.95
2018-07-27T18:18:00.358Z,28.94
2018-07-27T18:20:28.679Z,28.86
2018-07-27T18:22:57.005Z,28.68
2018-07-27T18:25:26.667Z,28.59
2018-07-27T18:27:55.051Z,28.63
2018-07-27T18:30:23.758Z,28.63
2018-07-27T18:32:51.544Z,28.57
2018-07-27T18:35:20.165Z,28.57
2018-07-27T18:37:48.757Z,28.53
2018-07-27T18:40:17.094Z,28.54
2018-07-27T18:42:45.737Z,28.54
2018-07-27T18:45:14.294Z,28.53
2018-07-27T18:47:42.372Z,28.51
2018-07-27T18:50:12.307Z,28.40
2018-07-27T18:52:42.651Z,28.31
2018-07-27T18:55:10.981Z,28.25
2018-07-27T18:57:40.420Z,28.20
2018-07-27T19:00:09.198Z,28.22
2018-07-27T19:02:37.690Z,28.25
2018-07-27T19:05:05.441Z,28.27
2018-07-27T19:07:34.360Z,28.23
2018-07-27T19:10:02.681Z,28.17
2018-07-27T19:12:31.013Z,28.10
2018-07-27T19:14:59.331Z,28.04
2018-07-27T19:17:28.014Z,27.97
2018-07-27T19:19:55.708Z,27.79
2018-07-27T19:22:24.627Z,27.70
2018-07-27T19:24:52.385Z,27.70
2018-07-27T19:27:20.702Z,27.71
2018-07-27T19:29:49.596Z,27.71
2018-07-27T19:32:17.921Z,27.68
2018-07-27T19:34:46.234Z,27.50
2018-07-27T19:37:14.565Z,27.11
2018-07-27T19:40:04.983Z,26.81
2018-07-27T19:42:32.820Z,26.50
2018-07-27T19:45:01.673Z,26.31
2018-07-27T19:47:30.005Z,26.12
2018-07-27T19:49:58.387Z,25.95
2018-07-27T19:52:26.680Z,25.83
2018-07-27T19:54:54.542Z,25.73
2018-07-27T19:57:23.512Z,25.59
2018-07-27T19:59:51.870Z,25.51
2018-07-27T20:02:53.203Z,25.40
2018-07-27T20:04:52.062Z,25.30
2018-07-27T20:07:20.391Z,25.24
2018-07-27T20:09:48.764Z,25.23
2018-07-27T20:12:17.114Z,25.22
2018-07-27T20:14:53.432Z,25.24
2018-07-27T20:17:21.191Z,25.26
2018-07-27T20:19:50.107Z,25.17
2018-07-27T20:22:18.452Z,25.12
2018-07-27T20:24:46.812Z,25.07
2018-07-27T20:27:15.185Z,25.02
2018-07-27T20:29:43.590Z,24.96
2018-07-27T20:32:11.424Z,24.97
2018-07-27T20:34:40.605Z,25.00
2018-07-27T20:37:08.792Z,25.01
2018-07-27T20:39:37.160Z,24.92
2018-07-27T20:42:05.558Z,24.76
2018-07-27T20:44:33.873Z,24.66
2018-07-27T20:47:01.689Z,24.65
2018-07-27T20:49:30.627Z,24.60
2018-07-27T20:51:59.006Z,24.60
2018-07-27T20:54:33.495Z,24.57
2018-07-27T20:57:02.194Z,24.61
2018-07-27T20:59:30.481Z,24.60
2018-07-27T21:01:58.237Z,24.54
2018-07-27T21:04:26.744Z,24.51
2018-07-27T21:06:55.688Z,24.46
2018-07-27T21:09:24.026Z,24.44
2018-07-27T21:11:52.583Z,24.47
2018-07-27T21:14:20.688Z,24.42
2018-07-27T21:16:49.009Z,24.36
2018-07-27T21:19:17.381Z,24.33
2018-07-27T21:21:45.231Z,24.25
2018-07-27T21:24:14.095Z,24.21
2018-07-27T21:26:42.472Z,24.23
2018-07-27T21:29:11.770Z,24.29
2018-07-27T21:31:40.099Z,24.21
2018-07-27T21:34:08.488Z,24.07
2018-07-27T21:36:36.297Z,23.96
2018-07-27T21:39:05.248Z,23.90
2018-07-27T21:41:37.278Z,23.85
2018-07-27T21:44:05.589Z,23.81
2018-07-27T21:46:33.341Z,23.75
2018-07-27T21:49:01.677Z,23.66
2018-07-27T21:51:36.167Z,23.58
2018-07-27T21:54:05.592Z,23.52
2018-07-27T21:56:33.447Z,23.62
2018-07-27T21:59:02.245Z,23.79
2018-07-27T22:01:30.588Z,23.83
2018-07-27T22:03:58.920Z,23.77
2018-07-27T22:06:26.670Z,23.67
2018-07-27T22:08:55.693Z,23.69
2018-07-27T22:11:24.008Z,23.73
2018-07-27T22:13:52.414Z,23.87
2018-07-27T22:16:20.738Z,24.05
2018-07-27T22:18:48.536Z,24.18
2018-07-27T22:21:17.573Z,24.23
2018-07-27T22:23:45.898Z,24.08
2018-07-27T22:26:14.206Z,23.94
2018-07-27T22:28:41.952Z,23.85
2018-07-27T22:31:10.872Z,23.81
2018-07-27T22:33:38.629Z,23.74
2018-07-27T22:36:11.554Z,23.74
2018-07-27T22:38:40.259Z,23.86
2018-07-27T22:41:08.302Z,24.04
2018-07-27T22:43:36.047Z,24.20
2018-07-27T22:46:04.833Z,24.32
2018-07-27T22:48:33.279Z,24.39
2018-07-27T22:51:01.664Z,24.32
2018-07-27T22:53:29.990Z,24.21
2018-07-27T22:55:58.325Z,24.15
2018-07-27T22:58:26.095Z,24.22
2018-07-27T23:00:54.985Z,24.36
2018-07-27T23:03:22.943Z,24.53
2018-07-27T23:05:51.105Z,24.68
2018-07-27T23:08:19.442Z,24.76
2018-07-27T23:10:47.778Z,24.73
2018-07-27T23:13:16.809Z,24.59
2018-07-27T23:15:44.549Z,24.30
2018-07-27T23:18:13.461Z,24.14
2018-07-27T23:20:41.509Z,24.11
2018-07-27T23:23:09.560Z,24.23
2018-07-27T23:25:38.469Z,24.21
2018-07-27T23:28:07.193Z,24.07
2018-07-27T23:30:36.014Z,23.95
2018-07-27T23:33:03.764Z,24.00
2018-07-27T23:35:32.671Z,24.15
2018-07-27T23:38:01.003Z,24.27
2018-07-27T23:40:28.961Z,24.37
2018-07-27T23:42:57.102Z,24.36
2018-07-27T23:45:26.023Z,24.32
2018-07-27T23:47:55.471Z,24.31
2018-07-27T23:50:23.590Z,24.35
2018-07-27T23:52:51.716Z,24.44
2018-07-27T23:55:20.024Z,24.45
2018-07-27T23:57:48.771Z,24.49
